Time;durP1;ratioP1;P1;durP2;ratioP2;P2;SDS_P1;SDS_P2;PMS_P1;PMS_P2;Temp;Humidity;BMP_temperature;BMP_pressure;BME280_temperature;BME280_humidity;BME280_pressure;Samples;Min_cycle;Max_cycle;Signal;HPM_P1;HPM_P2
2022/02/04 00:29:09;;;;;;;9.05;5.05;;;-1.60;82.80;;;;;;4896170;29;20045;-81
2022/02/04 00:32:03;;;;;;;8.82;4.80;;;-1.60;83.00;;;;;;4865108;29;20037;-81
2022/02/04 00:34:43;;;;;;;8.48;4.75;;;-1.60;82.50;;;;;;4865931;29;20045;-81
2022/02/04 00:39:56;;;;;;;8.50;4.95;;;-1.50;82.60;;;;;;4881809;29;20037;-81
2022/02/04 00:42:27;;;;;;;9.45;5.32;;;-1.50;82.80;;;;;;4881555;29;20028;-80
2022/02/04 00:45:29;;;;;;;10.15;5.15;;;-1.60;82.30;;;;;;4864720;29;20037;-80
2022/02/04 00:48:37;;;;;;;9.40;4.90;;;-1.60;81.60;;;;;;4881728;29;20124;-81
2022/02/04 00:53:50;;;;;;;9.15;5.53;;;-1.70;82.00;;;;;;4885628;29;20036;-81
2022/02/04 00:57:02;;;;;;;8.55;4.93;;;-1.70;81.90;;;;;;4885403;29;20479;-79
2022/02/04 01:27:44;;;;;;;6.47;4.00;;;-1.80;82.70;;;;;;4869955;29;20387;-81
2022/02/04 01:30:19;;;;;;;6.20;3.65;;;-1.80;82.20;;;;;;4880736;29;20078;-81
2022/02/04 01:32:51;;;;;;;6.13;3.80;;;-1.80;82.40;;;;;;4886998;29;20072;-81
2022/02/04 01:35:21;;;;;;;8.05;4.15;;;-1.90;82.30;;;;;;4899603;29;20092;-81
2022/02/04 01:37:50;;;;;;;7.25;4.20;;;-1.90;82.20;;;;;;4882140;29;20029;-81
2022/02/04 01:40:25;;;;;;;8.25;4.18;;;-1.90;82.10;;;;;;4877454;29;20041;-81
2022/02/04 01:42:53;;;;;;;5.55;3.50;;;-1.90;82.10;;;;;;4864631;29;20449;-80
2022/02/04 01:45:29;;;;;;;9.43;4.25;;;-1.90;82.50;;;;;;4863267;29;20041;-80
2022/02/04 01:48:02;;;;;;;6.90;3.88;;;-1.90;82.30;;;;;;4849626;29;20084;-81
2022/02/04 01:50:33;;;;;;;6.93;3.72;;;-1.90;82.10;;;;;;4863461;29;20045;-80
2022/02/04 01:53:06;;;;;;;7.45;3.67;;;-2.00;82.20;;;;;;4864174;29;20053;-81
2022/02/04 01:55:33;;;;;;;8.43;4.45;;;-2.00;82.00;;;;;;4880924;29;20068;-80
2022/02/04 01:58:05;;;;;;;7.78;4.20;;;-2.00;81.70;;;;;;4879286;29;20068;-81
2022/02/04 02:00:39;;;;;;;8.45;4.85;;;-2.00;81.30;;;;;;4847924;29;20045;-81
2022/02/04 02:03:14;;;;;;;7.00;3.72;;;-2.00;81.00;;;;;;4863961;29;20460;-80
2022/02/04 02:06:11;;;;;;;8.77;4.03;;;-2.00;81.40;;;;;;4866297;29;20057;-81
2022/02/04 02:08:43;;;;;;;9.10;3.88;;;-2.00;81.00;;;;;;4881695;29;20037;-80
2022/02/04 02:11:16;;;;;;;7.53;3.88;;;-2.00;81.30;;;;;;4880614;29;20033;-80
2022/02/04 02:14:03;;;;;;;10.05;4.25;;;-2.00;81.30;;;;;;4881219;29;20400;-80
2022/02/04 02:59:33;;;;;;;6.60;3.92;;;-2.30;80.00;;;;;;4893703;29;20050;-81
2022/02/04 03:02:06;;;;;;;8.82;4.50;;;-2.30;80.10;;;;;;4872115;29;20066;-81
2022/02/04 03:04:36;;;;;;;7.35;4.22;;;-2.30;80.10;;;;;;4889144;29;20052;-82
2022/02/04 03:07:06;;;;;;;8.20;4.18;;;-2.30;80.10;;;;;;4887598;29;20471;-81
2022/02/04 03:09:37;;;;;;;9.20;4.20;;;-2.30;80.20;;;;;;4887434;29;20032;-81
2022/02/04 03:12:14;;;;;;;9.10;4.60;;;-2.30;79.90;;;;;;4887052;29;20506;-80
2022/02/04 03:14:43;;;;;;;9.30;4.40;;;-2.40;80.00;;;;;;4910356;29;20119;-80
2022/02/04 03:17:15;;;;;;;10.63;5.10;;;-2.40;80.00;;;;;;4885524;29;20115;-80
2022/02/04 03:19:50;;;;;;;9.80;4.82;;;-2.40;79.60;;;;;;4901429;29;20036;-81
2022/02/04 03:22:20;;;;;;;10.60;5.72;;;-2.40;79.70;;;;;;4885026;29;20127;-80
2022/02/04 03:24:59;;;;;;;9.37;5.43;;;-2.50;79.40;;;;;;4884844;29;20090;-80
2022/02/04 03:27:39;;;;;;;8.65;4.63;;;-2.60;79.50;;;;;;4885173;29;20032;-80
2022/02/04 03:30:35;;;;;;;9.73;5.03;;;-2.60;79.70;;;;;;4870625;29;20040;-80
2022/02/04 03:33:10;;;;;;;8.15;4.70;;;-2.70;79.90;;;;;;4899433;29;20128;-81
2022/02/04 03:35:41;;;;;;;9.18;4.70;;;-2.80;80.10;;;;;;4902060;29;20119;-82
2022/02/04 03:38:14;;;;;;;8.85;4.80;;;-2.80;80.30;;;;;;4884271;29;20047;-81
2022/02/04 03:40:44;;;;;;;8.82;4.72;;;-2.90;80.60;;;;;;4886002;29;20043;-81
2022/02/04 03:43:18;;;;;;;9.57;5.05;;;-3.00;81.00;;;;;;4901515;29;20032;-81
2022/02/04 03:46:06;;;;;;;8.98;4.40;;;-3.00;81.30;;;;;;4899255;29;20124;-81
2022/02/04 03:48:37;;;;;;;9.90;5.05;;;-3.10;81.60;;;;;;4918882;29;20084;-80
2022/02/04 03:51:13;;;;;;;12.43;5.20;;;-3.10;81.90;;;;;;4902805;29;20040;-80
2022/02/04 03:53:41;;;;;;;10.23;5.80;;;-3.20;81.90;;;;;;4903923;29;20035;-80
2022/02/04 03:56:19;;;;;;;10.10;5.15;;;-3.20;82.20;;;;;;4903195;29;20084;-81
2022/02/04 03:58:47;;;;;;;9.07;4.93;;;-3.20;82.30;;;;;;4903279;29;20032;-82
2022/02/04 04:01:24;;;;;;;8.60;4.85;;;-3.30;82.30;;;;;;4887752;29;20038;-82
2022/02/04 04:03:53;;;;;;;9.85;5.35;;;-3.30;82.50;;;;;;4888704;29;20103;-82
2022/02/04 04:06:29;;;;;;;11.98;5.53;;;-3.30;82.60;;;;;;4903704;29;20052;-80
2022/02/04 04:09:00;;;;;;;10.20;5.70;;;-3.40;82.60;;;;;;4921871;29;20028;-81
2022/02/04 04:11:29;;;;;;;14.52;6.07;;;-3.40;83.00;;;;;;4906133;29;20032;-80
2022/02/04 04:14:14;;;;;;;12.52;6.20;;;-3.50;83.20;;;;;;4921985;29;20075;-80
2022/02/04 04:16:41;;;;;;;11.60;5.82;;;-3.50;83.40;;;;;;4904719;29;20450;-79
2022/02/04 04:19:14;;;;;;;10.80;6.13;;;-3.60;83.50;;;;;;4903484;29;20047;-82
2022/02/04 04:21:50;;;;;;;11.13;5.40;;;-3.60;83.70;;;;;;4917787;29;20036;-81
2022/02/04 04:24:16;;;;;;;9.75;5.18;;;-3.60;83.80;;;;;;4888039;29;20028;-81
2022/02/04 04:26:46;;;;;;;10.55;5.15;;;-3.60;83.90;;;;;;4903019;29;20035;-80
2022/02/04 04:29:21;;;;;;;9.55;5.20;;;-3.60;84.10;;;;;;4899598;29;20024;-81
2022/02/04 04:31:50;;;;;;;11.80;6.13;;;-3.70;84.20;;;;;;4902922;29;20032;-81
2022/02/04 04:34:28;;;;;;;9.75;5.38;;;-3.70;84.40;;;;;;4902227;29;20442;-81
2022/02/04 04:37:07;;;;;;;8.38;4.82;;;-3.70;84.60;;;;;;4919192;29;20051;-82
2022/02/04 04:39:48;;;;;;;10.57;5.45;;;-3.70;84.70;;;;;;4902631;29;20040;-80
2022/02/04 04:42:19;;;;;;;;;;;-3.80;84.70;;;;;;4891002;29;20031;-79
2022/02/04 04:45:13;;;;;;;;;;;-3.80;85.20;;;;;;4919503;29;19997;-81
2022/02/04 05:30:25;;;;;;;11.00;5.63;;;-4.30;88.60;;;;;;4908586;29;20088;-81
2022/02/04 05:32:54;;;;;;;10.75;5.85;;;-4.30;88.00;;;;;;4898048;29;20020;-81
2022/02/04 05:35:23;;;;;;;9.77;5.10;;;-4.30;88.70;;;;;;4889034;29;20075;-80
2022/02/04 05:37:58;;;;;;;10.73;5.38;;;-4.40;88.50;;;;;;4877692;29;20028;-81
2022/02/04 05:40:26;;;;;;;10.68;5.18;;;-4.40;89.10;;;;;;4895771;29;20704;-79
2022/02/04 05:42:59;;;;;;;9.35;5.03;;;-4.50;89.20;;;;;;4882026;29;20033;-83
2022/02/04 05:45:41;;;;;;;9.93;4.80;;;-4.50;89.60;;;;;;4867462;29;20561;-80
2022/02/04 05:48:11;;;;;;;10.38;5.43;;;-4.50;89.70;;;;;;4886824;29;20037;-80
2022/02/04 05:50:52;;;;;;;10.45;5.18;;;-4.50;90.20;;;;;;4904308;29;20033;-78
2022/02/04 05:53:27;;;;;;;11.73;6.13;;;-4.50;90.20;;;;;;4892196;29;20024;-79
2022/02/04 05:56:14;;;;;;;13.35;6.25;;;-4.50;90.20;;;;;;4893023;29;20032;-80
2022/02/04 06:01:26;;;;;;;12.73;6.68;;;-4.50;90.40;;;;;;4916396;29;20036;-81
2022/02/04 06:07:03;;;;;;;62.17;30.88;;;-4.40;91.00;;;;;;4921104;29;20056;-80
2022/02/04 06:10:13;;;;;;;61.20;27.65;;;-4.30;90.70;;;;;;4907407;29;20040;-81
2022/02/04 06:27:57;;;;;;;13.07;6.80;;;-4.00;89.70;;;;;;4807442;29;20043;-81
2022/02/04 06:34:11;;;;;;;10.23;6.03;;;-3.90;89.10;;;;;;4839501;29;20049;-83
2022/02/04 06:36:40;;;;;;;12.00;6.50;;;-3.90;89.00;;;;;;4845623;29;20059;-79
2022/02/04 06:39:06;;;;;;;9.73;5.07;;;-3.80;89.10;;;;;;4870460;29;20025;-83
2022/02/04 06:41:36;;;;;;;13.07;5.80;;;-3.80;88.80;;;;;;4861198;29;20450;-82
2022/02/04 06:44:02;;;;;;;191.73;89.07;;;-3.70;88.60;;;;;;4886621;29;20052;-83
2022/02/04 06:46:32;;;;;;;233.32;102.85;;;-3.60;88.80;;;;;;4880609;29;20053;-79
2022/02/04 06:49:01;;;;;;;171.77;70.90;;;-3.50;88.80;;;;;;4877998;29;20045;-79
2022/02/04 06:51:26;;;;;;;73.05;30.30;;;-3.40;88.30;;;;;;4860080;29;20052;-81
2022/02/04 06:53:52;;;;;;;49.17;21.85;;;-3.30;86.70;;;;;;4868856;29;20035;-76
2022/02/04 06:56:18;;;;;;;28.58;13.07;;;-3.20;86.30;;;;;;4881273;29;20132;-77
2022/02/04 06:58:46;;;;;;;22.33;10.25;;;-3.10;85.90;;;;;;4879849;29;20040;-76
2022/02/04 07:01:12;;;;;;;17.55;8.15;;;-3.00;85.70;;;;;;4881577;29;20024;-77
2022/02/04 07:03:38;;;;;;;15.63;7.97;;;-3.00;85.10;;;;;;4883072;29;20119;-77
2022/02/04 07:06:05;;;;;;;12.50;6.50;;;-2.90;86.10;;;;;;4882402;29;20410;-76
2022/02/04 07:08:43;;;;;;;12.68;6.38;;;-2.70;89.10;;;;;;4881212;29;20043;-76
2022/02/04 07:21:31;;;;;;;11.45;6.25;;;-0.60;88.30;;;;;;4897035;29;20035;-77
2022/02/04 07:23:56;;;;;;;9.90;5.95;;;-0.20;88.60;;;;;;4880746;29;20032;-78
2022/02/04 07:26:22;;;;;;;12.38;6.43;;;0.20;89.00;;;;;;4882549;29;20395;-77
2022/02/04 07:28:48;;;;;;;12.82;6.25;;;0.50;84.30;;;;;;4883246;29;20401;-75
2022/02/04 07:31:49;;;;;;;9.40;5.53;;;0.90;84.40;;;;;;4888155;29;20040;-78
2022/02/04 07:41:28;;;;;;;;;;;;;;;;;;;;;
2022/02/04 07:47:53;;;;;;;11.50;6.13;;;2.20;68.10;;;;;;4686241;30;20045;-78
2022/02/04 07:50:48;;;;;;;8.77;5.43;;;2.40;71.70;;;;;;4686149;30;20057;-77
2022/02/04 07:54:48;;;;;;;;;;;;;;;;;;;;;
2022/02/04 07:57:06;;;;;;;9.10;5.93;;;2.70;66.90;;;;;;4603725;31;20510;-79
2022/02/04 07:59:31;;;;;;;9.73;5.78;;;2.80;67.00;;;;;;4601098;31;20044;-79
2022/02/04 08:01:57;;;;;;;10.52;6.05;;;2.70;67.50;;;;;;4642123;30;20551;-78
2022/02/04 08:04:28;;;;;;;9.13;5.72;;;2.90;67.70;;;;;;4713967;29;20039;-79
2022/02/04 08:07:05;;;;;;;10.60;5.90;;;3.00;66.50;;;;;;4824694;29;20058;-79
2022/02/04 08:18:30;;;;;;;9.00;5.70;;;3.60;65.90;;;;;;4806598;29;20125;-78
2022/02/04 08:47:30;;;;;;;6.85;4.60;;;5.60;57.30;;;;;;4899818;29;20033;-79
2022/02/04 08:52:39;;;;;;;7.13;4.63;;;5.90;57.30;;;;;;4899772;29;20410;-80
2022/02/04 08:55:13;;;;;;;8.10;5.05;;;6.10;57.10;;;;;;4902847;29;20551;-80
2022/02/04 09:02:41;;;;;;;10.07;5.28;;;6.00;54.80;;;;;;4900078;29;20072;-79
2022/02/04 09:05:13;;;;;;;7.05;4.78;;;6.00;54.50;;;;;;4900071;29;20127;-79
2022/02/04 09:10:13;;;;;;;7.82;4.80;;;6.20;54.50;;;;;;4899310;29;20060;-79
2022/02/04 09:20:36;;;;;;;6.57;4.53;;;6.80;53.30;;;;;;4899148;29;20037;-81
2022/02/04 09:23:02;;;;;;;7.40;4.68;;;7.00;52.90;;;;;;4882748;29;20071;-80
2022/02/04 09:25:28;;;;;;;6.50;4.30;;;7.20;52.20;;;;;;4899074;29;20459;-80
2022/02/04 09:27:55;;;;;;;7.03;4.60;;;7.30;51.80;;;;;;4882136;29;20024;-80
2022/02/04 09:30:22;;;;;;;8.65;4.57;;;7.50;51.90;;;;;;4882155;29;20029;-79
2022/02/04 09:32:50;;;;;;;6.78;4.45;;;7.50;50.50;;;;;;4882065;29;20116;-80
2022/02/04 09:35:24;;;;;;;8.15;4.57;;;7.40;50.20;;;;;;4881909;29;20032;-80
2022/02/04 09:37:52;;;;;;;8.57;5.32;;;7.20;50.00;;;;;;4882224;29;20463;-80
2022/02/04 09:40:18;;;;;;;9.35;5.85;;;6.70;49.60;;;;;;4882285;29;20115;-79
2022/02/04 09:42:45;;;;;;;7.63;4.70;;;6.60;50.30;;;;;;4882172;29;20096;-81
2022/02/04 09:45:13;;;;;;;7.05;4.65;;;6.40;49.90;;;;;;4882786;29;20033;-80
2022/02/04 09:47:41;;;;;;;8.52;4.60;;;6.10;50.00;;;;;;4882483;29;20068;-81
2022/02/04 09:50:15;;;;;;;6.53;4.68;;;5.90;50.20;;;;;;4898718;29;20021;-80
2022/02/04 10:18:12;;;;;;;4.90;3.35;;;7.80;46.30;;;;;;4898492;29;20039;-79
2022/02/04 10:20:39;;;;;;;5.47;3.60;;;7.40;45.60;;;;;;4881607;29;20029;-79
2022/02/04 10:23:05;;;;;;;4.78;3.45;;;7.10;47.70;;;;;;4881695;29;20111;-79
2022/02/04 10:25:40;;;;;;;4.82;3.50;;;6.60;47.30;;;;;;4881568;29;20067;-79
2022/02/04 10:28:20;;;;;;;5.88;4.00;;;6.30;48.70;;;;;;4881393;29;20035;-79
2022/02/04 10:31:06;;;;;;;5.90;3.80;;;6.40;48.90;;;;;;4881771;29;20084;-80
2022/02/04 10:33:32;;;;;;;8.38;4.22;;;6.50;48.20;;;;;;4898589;29;20039;-80
2022/02/04 10:35:58;;;;;;;5.70;3.60;;;6.60;47.90;;;;;;4880889;29;20058;-79
2022/02/04 10:38:44;;;;;;;6.10;3.80;;;6.60;48.30;;;;;;4881721;29;20439;-80
2022/02/04 10:41:25;;;;;;;5.75;3.53;;;6.80;47.20;;;;;;4881218;29;20032;-79
2022/02/04 10:55:20;;;;;;;7.95;4.40;;;7.30;46.80;;;;;;4904087;29;20467;-79
2022/02/04 11:47:54;;;;;;;7.43;4.55;;;8.70;43.00;;;;;;4902844;29;20099;-79
2022/02/04 11:53:04;;;;;;;6.15;4.43;;;9.30;43.90;;;;;;4901346;29;20086;-78
2022/02/04 11:55:22;;;;;;;7.50;4.25;;;9.70;44.10;;;;;;4896630;29;20040;-78
2022/02/04 11:57:58;;;;;;;7.00;4.65;;;10.00;43.60;;;;;;4883812;29;20119;-78
2022/02/04 12:00:41;;;;;;;6.68;4.78;;;10.20;42.50;;;;;;4883689;29;20033;-78
2022/02/04 12:03:43;;;;;;;6.65;4.50;;;10.10;41.00;;;;;;4883460;29;20037;-77
2022/02/04 12:06:28;;;;;;;5.97;4.32;;;9.80;41.20;;;;;;4838542;29;20053;-78
2022/02/04 12:09:12;;;;;;;6.53;4.45;;;9.90;41.40;;;;;;4897089;29;20040;-77
2022/02/04 12:11:40;;;;;;;6.28;4.43;;;9.90;40.80;;;;;;4900859;29;20055;-78
2022/02/04 12:14:12;;;;;;;6.50;4.40;;;9.80;42.50;;;;;;4900205;29;20406;-78
2022/02/04 12:17:01;;;;;;;6.18;4.53;;;9.70;42.90;;;;;;4883368;29;20060;-78
2022/02/04 12:19:42;;;;;;;6.33;4.50;;;9.90;41.50;;;;;;4883221;29;20033;-78
2022/02/04 12:22:09;;;;;;;6.75;4.68;;;10.00;41.70;;;;;;4883730;29;20036;-78
2022/02/04 12:24:37;;;;;;;7.22;4.43;;;10.20;42.70;;;;;;4883773;29;20039;-78
2022/02/04 12:27:28;;;;;;;6.50;4.28;;;10.60;42.40;;;;;;4883537;29;20028;-78
2022/02/04 12:29:55;;;;;;;6.95;4.30;;;11.00;38.90;;;;;;4883136;29;20479;-77
2022/02/04 12:32:21;;;;;;;6.63;4.47;;;11.00;41.40;;;;;;4883206;29;20035;-77
2022/02/04 12:34:48;;;;;;;6.07;4.43;;;11.20;41.20;;;;;;4883058;29;20040;-78
2022/02/04 12:37:16;;;;;;;6.97;4.78;;;11.40;40.90;;;;;;4900044;29;20076;-78
2022/02/04 12:39:42;;;;;;;7.00;4.63;;;11.70;40.80;;;;;;4900199;29;20383;-78
2022/02/04 12:42:13;;;;;;;6.68;4.45;;;11.60;40.20;;;;;;4883145;29;20032;-77
2022/02/04 12:44:43;;;;;;;6.30;4.22;;;11.60;40.20;;;;;;4899639;29;20028;-77
2022/02/04 12:47:15;;;;;;;7.53;4.60;;;11.70;39.50;;;;;;4883322;29;20039;-78
2022/02/04 12:49:47;;;;;;;6.00;4.30;;;11.80;39.70;;;;;;4900715;29;20057;-78
2022/02/04 12:52:24;;;;;;;5.47;4.07;;;12.00;38.80;;;;;;4884048;29;20028;-78
2022/02/04 12:55:08;;;;;;;6.70;4.82;;;11.90;39.30;;;;;;4907814;29;20072;-77
2022/02/04 13:08:44;;;;;;;71.15;47.72;;;11.90;38.80;;;;;;4914557;29;20044;-77
2022/02/04 13:11:15;;;;;;;52.20;33.78;;;11.60;39.00;;;;;;4887395;29;20044;-77
2022/02/04 13:13:48;;;;;;;16.20;11.18;;;11.50;39.00;;;;;;4917720;29;20511;-76
2022/02/04 13:16:25;;;;;;;9.50;6.50;;;11.40;38.90;;;;;;4900253;29;20033;-78
2022/02/04 13:18:53;;;;;;;7.95;5.15;;;11.10;39.00;;;;;;4901011;29;20084;-77
2022/02/04 13:21:19;;;;;;;7.80;4.95;;;11.10;39.50;;;;;;4900548;29;20126;-78
2022/02/04 13:23:46;;;;;;;6.30;4.53;;;11.10;39.10;;;;;;4917948;29;20055;-76
2022/02/04 13:26:12;;;;;;;6.47;4.40;;;11.00;39.10;;;;;;4900626;29;20065;-78
2022/02/04 13:28:44;;;;;;;7.72;4.82;;;10.60;39.20;;;;;;4901078;29;20029;-77
2022/02/04 13:31:14;;;;;;;7.22;4.90;;;10.50;39.50;;;;;;4900544;29;20052;-78
2022/02/04 13:33:43;;;;;;;5.35;3.80;;;10.40;39.60;;;;;;4900338;29;20039;-78
2022/02/04 13:36:33;;;;;;;5.82;4.10;;;10.50;39.80;;;;;;4916409;29;20047;-76
2022/02/04 13:47:26;;;;;;;12.13;7.93;;;10.50;39.40;;;;;;4907402;29;20483;-75
2022/02/04 14:03:26;;;;;;;7.18;4.20;;;9.30;39.70;;;;;;4898716;29;20033;-77
2022/02/04 14:06:02;;;;;;;6.97;4.80;;;8.40;41.10;;;;;;4881360;29;20135;-76
2022/02/04 14:08:37;;;;;;;7.18;4.75;;;8.00;41.90;;;;;;4881882;29;20047;-77
2022/02/04 14:11:07;;;;;;;7.43;4.88;;;8.00;42.40;;;;;;4898580;29;20033;-78
2022/02/04 14:13:33;;;;;;;8.98;5.55;;;8.00;42.30;;;;;;4898444;29;20032;-78
2022/02/04 14:16:07;;;;;;;8.70;5.72;;;7.90;42.30;;;;;;4881296;29;20048;-79
2022/02/04 14:18:35;;;;;;;8.25;5.43;;;8.00;42.50;;;;;;4898530;29;20028;-78
2022/02/04 14:21:02;;;;;;;9.48;5.93;;;7.80;42.20;;;;;;4898637;29;20028;-78
2022/02/04 14:23:28;;;;;;;9.40;6.03;;;7.60;42.50;;;;;;4898021;29;20043;-80
2022/02/04 14:26:02;;;;;;;8.73;5.70;;;7.20;42.50;;;;;;4881384;29;20035;-78
2022/02/04 14:31:19;;;;;;;9.23;5.20;;;5.80;43.90;;;;;;4898378;29;20040;-78
2022/02/04 14:53:19;;;;;;;8.50;4.57;;;2.50;49.70;;;;;;4920953;29;20032;-77
2022/02/04 15:01:00;;;;;;;9.32;5.32;;;1.20;52.40;;;;;;4920542;29;20564;-79
2022/02/04 15:03:35;;;;;;;11.07;5.63;;;0.80;53.60;;;;;;4903447;29;20099;-78
2022/02/04 15:06:27;;;;;;;10.90;6.05;;;0.50;54.60;;;;;;4903433;29;20056;-79
2022/02/04 15:08:51;;;;;;;8.85;5.30;;;0.30;55.10;;;;;;4919822;29;20487;-78
2022/02/04 15:11:19;;;;;;;9.32;5.28;;;0.10;55.20;;;;;;4920648;29;20056;-78
2022/02/04 15:13:48;;;;;;;8.77;5.25;;;-0.10;55.00;;;;;;4920217;29;20031;-78
2022/02/04 15:16:14;;;;;;;9.85;5.50;;;-0.20;56.00;;;;;;4902995;29;20103;-78
2022/02/04 15:18:43;;;;;;;10.40;5.57;;;-0.40;56.70;;;;;;4901446;29;20091;-79
2022/02/04 15:21:15;;;;;;;9.15;5.07;;;-0.50;56.30;;;;;;4894426;29;20039;-78
2022/02/04 15:23:42;;;;;;;11.07;5.82;;;-0.60;56.80;;;;;;4891486;29;20038;-77
2022/02/04 15:26:13;;;;;;;9.98;5.40;;;-0.70;57.00;;;;;;4898758;29;20092;-78
2022/02/04 15:31:08;;;;;;;10.30;5.68;;;-0.90;57.60;;;;;;4919802;29;20123;-77
2022/02/04 15:33:36;;;;;;;9.50;5.13;;;-1.00;58.80;;;;;;4902728;29;20383;-78
2022/02/04 15:36:03;;;;;;;10.77;5.65;;;-1.10;59.00;;;;;;4919788;29;20032;-78
2022/02/04 15:38:29;;;;;;;10.82;5.50;;;-1.20;59.30;;;;;;4919452;29;20106;-79
2022/02/04 15:40:57;;;;;;;10.68;6.07;;;-1.30;59.50;;;;;;4903183;29;20035;-80
2022/02/04 15:43:29;;;;;;;11.15;6.00;;;-1.30;59.90;;;;;;4904596;29;20028;-77
2022/02/04 15:48:38;;;;;;;10.57;5.70;;;-1.50;60.30;;;;;;4920058;29;20111;-78
2022/02/04 15:53:40;;;;;;;12.00;6.28;;;-1.60;60.90;;;;;;4902542;29;20092;-77
2022/02/04 16:02:01;;;;;;;13.65;6.60;;;-1.70;60.80;;;;;;4900786;29;20035;-79
2022/02/04 16:04:28;;;;;;;10.77;5.90;;;-1.80;61.30;;;;;;4896376;29;20087;-77
2022/02/04 16:06:54;;;;;;;15.35;6.85;;;-1.80;61.40;;;;;;4884241;29;20103;-78
2022/02/04 16:09:22;;;;;;;12.60;6.43;;;-1.90;61.70;;;;;;4883300;29;20127;-78
2022/02/04 16:14:51;;;;;;;12.60;6.32;;;-2.00;61.70;;;;;;4900374;29;20036;-78
2022/02/04 16:20:12;;;;;;;12.57;6.45;;;-2.00;61.70;;;;;;4918989;29;20052;-78
2022/02/04 16:30:41;;;;;;;10.57;5.60;;;-2.20;62.00;;;;;;4900230;29;20047;-78
2022/02/04 16:33:07;;;;;;;10.10;5.60;;;-2.20;62.40;;;;;;4885928;29;20021;-77
2022/02/04 16:35:33;;;;;;;11.05;6.43;;;-2.20;61.70;;;;;;4892103;29;20042;-78
2022/02/04 16:38:03;;;;;;;12.75;6.38;;;-2.30;62.70;;;;;;4899384;29;20028;-78
2022/02/04 16:40:33;;;;;;;11.02;6.13;;;-2.30;62.10;;;;;;4891918;29;20054;-76
2022/02/04 16:43:00;;;;;;;12.98;6.68;;;-2.30;62.40;;;;;;4886089;29;20033;-78
2022/02/04 16:45:25;;;;;;;12.48;6.57;;;-2.30;63.10;;;;;;4884832;29;20032;-78
2022/02/04 16:47:52;;;;;;;11.32;6.63;;;-2.40;63.20;;;;;;4899382;29;20492;-77
2022/02/04 16:50:21;;;;;;;12.02;6.82;;;-2.40;63.30;;;;;;4899585;29;20040;-77
2022/02/04 16:52:51;;;;;;;12.45;6.88;;;-2.50;63.10;;;;;;4899063;29;20035;-79
2022/02/04 16:55:19;;;;;;;12.23;6.60;;;-2.50;63.00;;;;;;4882598;29;20384;-78
2022/02/04 16:57:46;;;;;;;11.68;6.78;;;-2.60;63.40;;;;;;4882401;29;20439;-77
2022/02/04 17:00:26;;;;;;;12.63;6.90;;;-2.60;63.70;;;;;;4882511;29;20040;-78
2022/02/04 17:02:55;;;;;;;13.50;6.78;;;-2.60;63.50;;;;;;4882256;29;20044;-78
2022/02/04 17:05:24;;;;;;;13.88;7.60;;;-2.60;63.90;;;;;;4897937;29;20211;-78
2022/02/04 17:08:06;;;;;;;15.15;6.80;;;-2.70;63.80;;;;;;4898711;29;20088;-78
2022/02/04 17:10:33;;;;;;;14.55;6.93;;;-2.70;63.90;;;;;;4899223;29;20063;-79
2022/02/04 17:13:01;;;;;;;17.40;7.32;;;-2.70;64.40;;;;;;4898876;29;20112;-78
2022/02/04 17:15:32;;;;;;;20.35;9.55;;;-2.70;64.70;;;;;;4904115;29;20615;-78
2022/02/04 17:17:58;;;;;;;19.83;10.23;;;-2.80;65.90;;;;;;4883559;29;20068;-77
2022/02/04 17:20:25;;;;;;;21.30;9.32;;;-2.80;65.90;;;;;;4892905;29;20039;-77
2022/02/04 17:22:51;;;;;;;20.23;9.07;;;-2.80;66.70;;;;;;4900759;29;20037;-77
2022/02/04 17:25:18;;;;;;;21.90;9.07;;;-2.90;66.70;;;;;;4900769;29;20036;-77
2022/02/04 17:27:45;;;;;;;19.60;7.97;;;-2.90;67.20;;;;;;4900444;29;20095;-79
2022/02/04 17:30:15;;;;;;;14.18;6.95;;;-3.00;66.80;;;;;;4917677;29;20107;-79
2022/02/04 17:32:43;;;;;;;14.15;7.20;;;-3.10;67.70;;;;;;4900930;29;20363;-79
2022/02/04 17:35:10;;;;;;;15.68;7.25;;;-3.20;68.00;;;;;;4900385;29;20063;-80
2022/02/04 17:37:37;;;;;;;19.40;8.00;;;-3.30;67.50;;;;;;4888623;29;20028;-81
2022/02/04 17:40:05;;;;;;;21.42;8.77;;;-3.40;68.10;;;;;;4890540;29;20025;-79
2022/02/04 17:42:34;;;;;;;17.83;8.65;;;-3.40;68.50;;;;;;4887727;29;20036;-80
2022/02/04 17:45:05;;;;;;;18.88;9.30;;;-3.50;68.90;;;;;;4889310;29;20029;-83
2022/02/04 17:47:34;;;;;;;21.45;8.95;;;-3.60;69.50;;;;;;4892348;29;20048;-82
2022/02/04 17:50:21;;;;;;;21.85;9.43;;;-3.60;69.80;;;;;;4887786;29;20060;-83
2022/02/04 17:52:54;;;;;;;23.70;10.20;;;-3.70;69.20;;;;;;4904200;29;20087;-84
2022/02/04 17:55:46;;;;;;;21.50;9.00;;;-3.80;70.10;;;;;;4888862;29;20483;-83
2022/02/04 17:58:30;;;;;;;20.95;9.57;;;-3.80;70.70;;;;;;4904184;29;20374;-85
2022/02/04 18:08:30;;;;;;;34.78;13.93;;;-3.90;72.30;;;;;;4909315;29;20036;-86
2022/02/04 18:11:03;;;;;;;32.38;14.48;;;-3.90;72.40;;;;;;4893724;29;20391;-84
2022/02/04 18:13:31;;;;;;;38.40;14.95;;;-4.00;72.30;;;;;;4888617;29;20064;-87
2022/02/04 18:16:05;;;;;;;35.03;14.73;;;-4.00;72.40;;;;;;4903451;29;20131;-79
2022/02/04 18:18:44;;;;;;;38.17;14.57;;;-4.10;72.40;;;;;;4886064;29;20463;-84
2022/02/04 18:21:25;;;;;;;28.17;12.70;;;-4.10;72.60;;;;;;4909850;29;20119;-85
2022/02/04 18:23:52;;;;;;;29.13;13.88;;;-4.10;71.40;;;;;;4892229;29;20052;-85
2022/02/04 18:26:51;;;;;;;29.95;13.45;;;-4.20;73.10;;;;;;4907012;29;20040;-86
2022/02/04 18:29:20;;;;;;;36.45;13.38;;;-4.30;72.40;;;;;;4891598;29;20036;-85
2022/02/04 18:32:05;;;;;;;29.25;13.25;;;-4.20;72.40;;;;;;4889780;29;20048;-85
2022/02/04 18:34:33;;;;;;;28.40;13.38;;;-4.30;73.70;;;;;;4895051;29;20672;-87
2022/02/04 18:37:10;;;;;;;32.30;14.15;;;-4.30;74.30;;;;;;4896737;29;20044;-89
2022/02/04 18:45:26;;;;;;;40.28;18.38;;;-4.40;75.80;;;;;;4894548;29;20040;-84
2022/02/04 18:48:09;;;;;;;38.00;17.23;;;-4.30;76.60;;;;;;4917003;29;20036;-86
2022/02/04 18:50:48;;;;;;;36.20;15.45;;;-4.20;75.00;;;;;;4910528;29;20025;-90
2022/02/04 18:56:15;;;;;;;33.63;14.48;;;-4.30;74.60;;;;;;4911896;29;20131;-87
2022/02/04 18:58:42;;;;;;;28.50;13.10;;;-4.30;74.60;;;;;;4893722;29;20024;-86
2022/02/04 19:01:30;;;;;;;25.73;12.68;;;-4.40;76.70;;;;;;4912500;29;20087;-87
2022/02/04 19:04:01;;;;;;;27.02;11.98;;;-4.40;76.70;;;;;;4909282;29;20032;-87
2022/02/04 19:06:42;;;;;;;;;;;-4.40;75.20;;;;;;4889004;29;20121;-81
2022/02/04 19:09:16;;;;;;;43.58;18.15;;;-4.60;83.20;;;;;;4896256;29;19957;-82
2022/02/04 19:11:51;;;;;;;47.80;19.10;;;-4.60;77.90;;;;;;4882169;29;20413;-83
2022/02/04 19:14:46;;;;;;;46.78;18.88;;;-4.70;78.90;;;;;;4884262;29;20029;-85
2022/02/04 19:17:32;;;;;;;39.58;17.30;;;-4.70;79.00;;;;;;4902919;29;20395;-83
2022/02/04 19:20:08;;;;;;;41.95;16.05;;;-4.80;79.20;;;;;;4883994;29;20084;-83
2022/02/04 19:22:53;;;;;;;38.63;15.25;;;-4.80;80.70;;;;;;4900209;29;20054;-85
2022/02/04 19:25:23;;;;;;;34.40;15.50;;;-4.90;81.40;;;;;;4882601;29;20036;-82
2022/02/04 19:27:50;;;;;;;32.30;15.25;;;-4.90;80.90;;;;;;4903907;29;20063;-83
2022/02/04 19:30:20;;;;;;;26.75;12.95;;;-5.00;81.60;;;;;;4893738;29;20095;-82
2022/02/04 19:32:47;;;;;;;31.88;14.10;;;-5.00;81.40;;;;;;4887051;29;20449;-82
2022/02/04 19:35:15;;;;;;;28.48;13.02;;;-5.10;82.50;;;;;;4903281;29;20096;-88
2022/02/04 19:37:41;;;;;;;30.02;12.85;;;-5.10;82.00;;;;;;4901294;29;20059;-84
2022/02/04 19:40:16;;;;;;;36.40;15.68;;;-5.10;83.40;;;;;;4913511;29;20099;-82
2022/02/04 19:42:46;;;;;;;28.90;14.43;;;-5.10;83.60;;;;;;4890366;29;20063;-83
2022/02/04 19:45:22;;;;;;;28.95;12.95;;;-5.10;83.50;;;;;;4907310;29;20084;-82
2022/02/04 19:48:18;;;;;;;25.70;11.48;;;-5.20;84.00;;;;;;4905806;29;20037;-80
2022/02/04 19:53:36;;;;;;;24.25;11.90;;;-5.30;83.10;;;;;;4908784;29;20032;-79
2022/02/04 20:26:46;;;;;;;21.83;10.48;;;-5.70;85.60;;;;;;4911249;29;20063;-81
2022/02/04 20:29:12;;;;;;;27.58;11.77;;;-5.70;84.70;;;;;;4893309;29;20031;-80
2022/02/04 20:31:42;;;;;;;25.98;12.38;;;-5.70;86.10;;;;;;4878125;29;20045;-79
2022/02/04 20:34:08;;;;;;;22.85;11.00;;;-5.70;86.20;;;;;;4890036;29;20403;-80
2022/02/04 20:36:39;;;;;;;24.38;11.48;;;-5.80;86.00;;;;;;4864836;29;20040;-81
2022/02/04 20:39:11;;;;;;;26.23;10.90;;;-5.80;85.00;;;;;;4875699;29;20088;-81
2022/02/04 20:41:36;;;;;;;24.83;11.32;;;-5.90;85.20;;;;;;4906878;29;20082;-81
2022/02/04 20:44:03;;;;;;;25.77;11.02;;;-5.90;85.80;;;;;;4904983;29;20032;-81
2022/02/04 20:46:34;;;;;;;21.73;10.30;;;-5.90;86.10;;;;;;4879800;29;20755;-82
2022/02/04 20:49:08;;;;;;;23.15;10.13;;;-6.00;85.40;;;;;;4886389;29;20153;-80
2022/02/04 20:51:37;;;;;;;21.30;10.27;;;-6.00;85.30;;;;;;4905987;29;20091;-82
2022/02/04 20:54:03;;;;;;;23.02;10.63;;;-6.10;85.30;;;;;;4874855;29;20514;-81
2022/02/04 20:56:33;;;;;;;24.85;11.85;;;-6.10;86.20;;;;;;4888033;29;20033;-81
2022/02/04 20:59:04;;;;;;;20.33;10.20;;;-6.10;86.30;;;;;;4888390;29;20484;-81
2022/02/04 21:01:32;;;;;;;22.55;11.10;;;-6.10;86.40;;;;;;4872968;29;20051;-81
2022/02/04 21:04:01;;;;;;;21.25;10.18;;;-6.20;86.50;;;;;;4888488;29;20432;-80
2022/02/04 21:06:45;;;;;;;24.35;11.07;;;-6.20;86.40;;;;;;4907112;29;20064;-79
2022/02/04 21:17:33;;;;;;;27.27;13.23;;;-6.20;85.20;;;;;;4904716;29;20460;-80